Laman API Video Percuma Terbaik

AVDBAPI.COM

Cari katalog, semak rekod, dan salin URL API bersih daripada papan pemuka pantas.

Telegram Join Our Telegram Community for Updates!
Today
0
Kemaskini Hari Ini
Censored
313977
Censored Videos
Total
474136
Total Videos

Senarai Video

Rekod terkini disusun mengikut masa kemas kini.

ID Nama CODE Kategori Dikemaskini API
262607 H4610-KI221006 Kanae Maezaki Umur 27 Tahun H4610-KI221006 Tanpa sensor 2025-08-28 21:26:10 API
262606 MD0122 Cinta Perlukan Keberanian / Filem Dewasa Pertama Madou 2021 MD0122 AV Cina 2025-08-28 21:26:00 API
262605 MD0311 Janji Tersembunyi Di Bawah Gaun Pengantin/Batang Bekas Kekasih Yang Tak Terlupakan MD0311 AV Cina 2025-08-28 21:25:50 API
262604 121621-01 Gadis amatur berkaki cantik menggoyangkan pinggul dan menjerit nikmat 121621-01 Tanpa sensor 2025-08-28 21:25:40 API
262603 JPGC0024 Seks curang isteri langsing yang gatal JPGC0024 Tanpa sensor 2025-08-28 21:25:30 API
262602 MD0123 Siri Debut / Gadis Kolej Supermodel dengan Kaki Menawan MD0123 AV Cina 2025-08-28 21:25:20 API
262601 FC2-PPV-4508077 Puting tegang yang ghairah! Syurga creampie bersama RAW dan gadis FC2-PPV-4508077 Tanpa sensor 2025-08-28 21:25:10 API
262600 040517-004 The Paipan II ~ Roriman Licin Penarik Benang Nikmat ~ 040517-004 Tanpa sensor 2025-08-28 21:25:00 API
262599 HEYZO-2829 Haruka Sanada [Haruka Sanada] Perempuan simpanan hebatku dengan tubuh yang sangat sensitif HEYZO-2829 Tanpa sensor 2025-08-28 21:24:50 API
262598 H0930-KI220806 Gadis 29 Tahun Emi Shirakawa H0930-KI220806 Tanpa sensor 2025-08-28 21:24:40 API
262597 C0930-HITOZUMA1375 Nao Tsubono 27 Tahun C0930-HITOZUMA1375 Tanpa sensor 2025-08-28 21:24:30 API
262596 081822-001 180 minit tusukan tanpa henti bagaikan ombak mengganas ~Gila kerana klimaks yang tidak dapat dihentikan!~ Bahagian 2 Akemi Kihara 081822-001 Tanpa sensor 2025-08-28 21:24:20 API
262595 QT004 Cikgu Saya Yang Ketagih Seks Berjanji Temu Dengan Cikgu Lain Yang Berdada Besar QT004 AV Cina 2025-08-28 21:24:10 API
262594 050521_001 Lubang Ibu dan Mainan Syahwat 050521_001 Tanpa sensor 2025-08-28 21:24:00 API
262593 MD0118 Kenapa Tergesa-gesa Sangat? / Teater Seragam Seksi Variasi MD0118 AV Cina 2025-08-28 21:23:50 API
262592 H-221006 Kanae Maezaki H-221006 Tanpa sensor 2025-08-28 21:23:40 API
262591 121821-01 Payudara Cup F: Santa akan melayani kote anda 121821-01 Tanpa sensor 2025-08-28 21:23:30 API
262590 PP051 Fallen Angel Gonzo No.051 Kaori Sekuel PP051 Tanpa sensor 2025-08-28 21:23:20 API
262589 111821-560 Latihan seksi memakai bloomers ketat dan baju sukan yang mencengkam badan 111821-560 Tanpa sensor 2025-08-28 21:23:10 API
262588 MD0119 Debut Pelakon Baru / Gadis comel semula jadi dengan pesona dewasa yang menggoda MD0119 AV Cina 2025-08-28 21:23:00 API
262587 H0930-TK0060 Wanita Cantik 26 Tahun Yumiko Iwao H0930-TK0060 Tanpa sensor 2025-08-28 21:22:50 API
262586 FC2-PPV-4508265 Tengoklah wanita rahsia ini! FC2-PPV-4508265 Tanpa sensor 2025-08-28 21:22:40 API
262585 CUS-2103 Sepupu Saya Menjadi Alat Mainan Seks Peribadi Saya CUS-2103 AV Cina 2025-08-28 21:22:30 API
262584 040517-003 Jeritan Berterusan Hingga Klimaks 040517-003 Tanpa sensor 2025-08-28 21:22:20 API
262583 C0930-KI220312 Gadis Cantik Berusia 20 Tahun Narumi Nakane C0930-KI220312 Tanpa sensor 2025-08-28 21:22:10 API
262582 HEYZO-2830 Noeru Misawa [Noeru Misawa] Nafsu Menggebu Ingin Menaklukkan Saffle Vol.2 HEYZO-2830 Tanpa sensor 2025-08-28 21:22:00 API
262581 050621_001 Shiramoriri, si cantik air panas yang sangat seksi 050621_001 Tanpa sensor 2025-08-28 21:21:50 API
262580 MD0120-3 Manusia Serigala Menghenyak Dewi Yang Kembali ke Cahaya MD0120-3 AV Cina 2025-08-28 21:21:40 API
262579 CUS-2106 Gadis Cantik Sekolah Tsundere Merintih Di Bawah Batang Saya CUS-2106 AV Cina 2025-08-28 21:21:30 API
262578 H4610-KI221009 Wanita Cantik Rinako Fujimoto Berusia 28 Tahun H4610-KI221009 Tanpa sensor 2025-08-28 21:21:20 API
262577 112021-561 Skandal Rahsia di Kolam Air Panas 112021-561 Tanpa sensor 2025-08-28 21:21:10 API
262576 H0930-KI220807 Wanita Cantik Berusia 45 Tahun Kikuko Fujimoto H0930-KI220807 Tanpa sensor 2025-08-28 21:21:00 API
262575 081922-001 Debut Vol.77 ~Takkan Tak Boleh Cinta Seks? ~ Rin Hinami 081922-001 Tanpa sensor 2025-08-28 21:20:50 API
262574 SR052 Rekod Pengambilan Graduan Baharu No.052 Reina [Rakaman Peribadi] SR052 Tanpa sensor 2025-08-28 21:20:40 API
262573 121921-01 Koleksi kemaluan berharga - Sila lihat kemaluan Aki - 121921-01 Tanpa sensor 2025-08-28 21:20:30 API
262572 FC2-PPV-4508673 Seorang isteri yang hilang nama dan usia dalam permainan ranjang yang ghairah FC2-PPV-4508673 Tanpa sensor 2025-08-28 21:20:20 API
262571 MD0120-2 Manusia Serigala Menamun Dewi Kemarahan MD0120-2 AV Cina 2025-08-28 21:20:10 API
262570 CUS-2105 Gadis Jiran dan Rahsia Kecilku yang Nakal CUS-2105 AV Cina 2025-08-28 21:20:00 API
262569 041217-005 Lingerie Seksi dan Seks Basah yang Mengghairahkan 041217-005 Tanpa sensor 2025-08-28 21:19:50 API
262568 MD0116 Pertempuran Panas Berahi di Kolam Air Panas Musim Sejuk MD0116 AV Cina 2025-08-28 21:19:40 API
262567 050721_001 Wanita Hospitality yang Pandai Mengentot 050721_001 Tanpa sensor 2025-08-28 21:19:30 API
262566 CUS-2104 Pengalaman Threesome Liar Adik Lelaki Yang Dahaga Seks CUS-2104 AV Cina 2025-08-28 21:19:20 API
262565 C-220313 Wanita Matang 56 Tahun Kanae Abe Yang Menggiurkan C-220313 Tanpa sensor 2025-08-28 21:19:10 API
262563 H0930-KI220809 Takami Kishihata Umur 35 Tahun H0930-KI220809 Tanpa sensor 2025-08-28 21:18:50 API
262562 122121-01 Tiba-tiba Kena Pick-up Balik Di Kota, Langsung Cabut Ke Hotel Dan Kena Tembak Mani Dalam L*nt 122121-01 Tanpa sensor 2025-08-28 21:18:40 API
262561 112321-562 Wanita Matang Kembali Untuk Dientot Lubang Dubur 112321-562 Tanpa sensor 2025-08-28 21:18:30 API
262560 JUP0035 Wanita yang masih terasa nikmat dengan cangkuk hidung, deep throat, gantung testis, lilin dan neraka elektrik JUP0035 Tanpa sensor 2025-08-28 21:18:20 API
262559 CUS-2107 Elephant Media Seks dalam stokin hitam jarang: malaikat jatuh bertukar menjadi succubus penggoda CUS-2107 AV Cina 2025-08-28 21:18:10 API
262558 FC2-PPV-4508672 Adakah ini memuaskan Yun-Pon? Istimewa daripada Otoha FC2-PPV-4508672 Tanpa sensor 2025-08-28 21:18:00 API
262557 HEYZO-2832 Sumire Mika menjilat dan menghisap dengan nikmat! HEYZO-2832 Tanpa sensor 2025-08-28 21:17:50 API